createdAt,value
2019-02-16T00:35:46.616Z,0.00
2019-02-16T00:35:47.116Z,0.00
2019-02-16T00:35:47.719Z,0.00
2019-02-16T00:35:48.319Z,0.00
2019-02-16T00:35:48.918Z,0.00
2019-02-16T00:35:49.517Z,0.00
2019-02-16T00:35:50.138Z,0.00
2019-02-16T00:35:50.716Z,0.00
2019-02-16T00:36:47.738Z,0.00
2019-02-16T00:36:48.293Z,0.00
2019-02-16T00:36:48.902Z,0.00
2019-02-16T00:39:31.217Z,0.00
2019-02-16T00:39:31.781Z,0.00
2019-02-16T00:39:32.382Z,0.00
2019-02-16T00:39:33.008Z,0.00
2019-02-16T00:39:33.582Z,0.00
2019-02-16T00:39:34.178Z,0.00
2019-02-16T00:39:34.778Z,0.00
2019-02-16T00:39:35.378Z,0.00
2019-02-16T00:39:36.009Z,0.00
2019-02-16T00:39:36.613Z,0.00
2019-02-16T00:39:37.176Z,0.00
2019-02-16T00:39:37.776Z,0.00
2019-02-16T00:41:09.366Z,0.00
2019-02-16T00:41:09.928Z,0.00
2019-02-16T00:41:10.525Z,0.00
2019-02-16T00:41:11.122Z,0.00
2019-02-16T00:41:11.722Z,0.00
2019-02-16T00:41:12.322Z,0.00
2019-02-16T00:41:12.922Z,0.00
2019-02-16T00:41:13.520Z,0.00
2019-02-16T00:41:14.121Z,0.00
2019-02-16T00:41:14.721Z,0.00
2019-02-16T00:41:15.342Z,0.00
2019-02-16T00:42:25.334Z,0.00
2019-02-16T00:42:25.909Z,0.00
2019-02-16T00:42:26.523Z,0.00
2019-02-16T00:42:27.106Z,0.00
2019-02-16T00:42:27.705Z,0.00
2019-02-16T00:42:28.305Z,0.00
2019-02-16T00:42:28.905Z,0.00
2019-02-16T00:42:29.515Z,0.00
2019-02-16T00:42:30.107Z,0.00
2019-02-16T00:42:30.705Z,0.00
2019-02-16T00:42:31.303Z,0.00
2019-02-16T00:42:31.904Z,0.00
2019-02-16T00:42:32.503Z,0.00
2019-02-16T00:42:33.103Z,0.00
2019-02-16T00:43:29.645Z,0.00
2019-02-16T00:43:30.215Z,0.00
2019-02-16T00:43:30.813Z,0.00
2019-02-16T00:45:22.386Z,0.00
2019-02-16T00:45:23.045Z,0.00
2019-02-16T00:45:23.555Z,0.00
2019-02-16T00:45:24.157Z,0.00
2019-02-16T00:45:24.760Z,0.00
2019-02-16T00:45:25.355Z,0.00
2019-02-16T00:45:25.955Z,0.00
2019-02-16T00:45:26.554Z,0.00
2019-02-16T00:45:27.156Z,0.00
2019-02-16T00:45:27.753Z,0.00
2019-02-16T00:45:28.353Z,0.00
2019-02-16T00:49:20.045Z,0.00
2019-02-16T00:49:20.612Z,0.00
2019-02-16T00:49:21.215Z,0.00
2019-02-16T00:49:21.811Z,0.00
2019-02-16T00:49:22.411Z,0.00
2019-02-16T00:49:23.010Z,0.00
2019-02-16T00:49:23.617Z,0.00
2019-02-16T00:49:24.227Z,0.00
2019-02-16T00:49:24.810Z,0.00
2019-02-16T00:49:25.455Z,0.00
2019-02-16T00:49:26.009Z,0.00
2019-02-16T00:49:26.609Z,0.00
2019-02-16T00:52:09.483Z,0.00
2019-02-16T00:52:10.051Z,0.00
2019-02-16T00:52:10.685Z,0.00
2019-02-16T00:52:11.251Z,0.00
2019-02-16T00:52:11.850Z,0.00
2019-02-16T00:52:12.450Z,0.00
2019-02-16T00:52:13.050Z,0.00
2019-02-16T00:52:13.651Z,0.00
2019-02-16T00:52:14.268Z,0.00
2019-02-16T00:52:14.863Z,0.00
2019-02-16T00:52:15.450Z,0.00
2019-02-16T00:52:16.051Z,0.00
2019-02-16T00:53:13.137Z,0.00
2019-02-16T00:53:13.702Z,0.00
2019-02-16T00:53:14.293Z,0.00
2019-02-16T00:54:08.319Z,0.00
2019-02-16T00:54:08.893Z,0.00
2019-02-16T00:54:09.488Z,0.00
2019-02-16T00:54:10.087Z,0.00
2019-02-16T00:54:10.687Z,0.00
2019-02-16T00:54:11.287Z,0.00
2019-02-16T00:54:11.903Z,0.00
2019-02-16T00:56:24.203Z,0.00
2019-02-16T00:56:24.777Z,0.00
2019-02-16T00:56:25.401Z,0.00
2019-02-16T00:56:25.973Z,0.00
2019-02-16T00:56:26.565Z,0.00
2019-02-16T00:56:27.165Z,0.00
2019-02-16T00:56:27.766Z,0.00
2019-02-16T00:56:28.364Z,0.00
2019-02-16T00:56:28.966Z,0.00
2019-02-16T00:56:29.565Z,0.00
2019-02-16T00:56:30.164Z,0.00
2019-02-16T00:56:30.764Z,0.00
2019-02-16T00:57:29.226Z,0.00
2019-02-16T00:57:29.800Z,0.00
2019-02-16T00:57:30.403Z,0.00
2019-02-16T00:57:31.000Z,0.00
2019-02-16T00:57:31.599Z,0.00
2019-02-16T00:57:32.198Z,0.00
2019-02-16T00:57:32.799Z,0.00
2019-02-16T00:57:33.401Z,0.00
2019-02-16T00:57:34.002Z,0.00
2019-02-16T00:57:34.598Z,0.00
2019-02-16T00:57:35.197Z,0.00
2019-02-16T00:57:35.797Z,0.00
2019-02-16T00:57:36.398Z,0.00
2019-02-16T00:57:37.794Z,0.00
2019-02-16T00:57:38.299Z,0.00
2019-02-16T00:58:51.866Z,0.00
2019-02-16T00:58:52.438Z,0.00
2019-02-16T00:58:53.037Z,0.00
2019-02-16T00:58:53.637Z,0.00
2019-02-16T00:58:54.239Z,0.00
2019-02-16T00:58:54.839Z,0.00
2019-02-16T00:58:55.438Z,0.00
2019-02-16T00:58:56.038Z,0.00
2019-02-16T01:02:01.728Z,0.00
2019-02-16T01:02:02.229Z,0.00
2019-02-16T01:02:02.860Z,0.00
2019-02-16T01:02:03.430Z,0.00
2019-02-16T01:02:04.030Z,0.00
2019-02-16T01:02:04.629Z,0.00
2019-02-16T01:02:05.227Z,0.00
2019-02-16T01:02:05.833Z,0.00
2019-02-16T01:02:06.427Z,0.00
2019-02-16T01:03:08.275Z,0.00
2019-02-16T01:03:08.849Z,0.00
2019-02-16T01:03:09.458Z,0.00
2019-02-16T01:03:10.054Z,0.00
2019-02-16T01:03:10.648Z,0.00
2019-02-16T01:03:11.292Z,0.00
2019-02-16T01:03:11.847Z,0.00
2019-02-16T01:03:12.447Z,0.00
2019-02-16T01:03:13.046Z,0.00
2019-02-16T01:03:13.647Z,0.00
2019-02-16T01:03:14.245Z,0.00
2019-02-16T01:03:14.847Z,0.00
2019-02-16T01:04:11.355Z,0.00
2019-02-16T01:04:11.927Z,0.00
2019-02-16T01:04:12.527Z,0.00
2019-02-16T01:05:19.656Z,0.00
2019-02-16T01:05:20.229Z,0.00
2019-02-16T01:06:30.210Z,0.00
2019-02-16T01:06:30.784Z,0.00
2019-02-16T01:06:31.385Z,0.00
2019-02-16T01:06:31.988Z,0.00
2019-02-16T01:06:32.588Z,0.00
2019-02-16T01:06:33.183Z,0.00
2019-02-16T01:06:33.783Z,0.00
2019-02-16T01:06:34.384Z,0.00
2019-02-16T01:06:34.982Z,0.00
2019-02-16T01:06:35.583Z,0.00
2019-02-16T01:06:36.186Z,0.00
2019-02-16T01:06:36.781Z,0.00
2019-02-16T01:06:37.380Z,0.00
2019-02-16T01:06:37.984Z,0.00
2019-02-16T01:08:59.118Z,0.00
2019-02-16T01:08:59.622Z,0.00
2019-02-16T01:09:00.220Z,0.00
2019-02-16T01:13:42.247Z,0.00
2019-02-16T01:13:42.811Z,0.00
2019-02-16T01:13:43.489Z,0.00
2019-02-16T01:13:44.010Z,0.00
2019-02-16T01:13:44.610Z,0.00
2019-02-16T01:15:34.679Z,0.00
2019-02-16T01:15:35.250Z,0.00
2019-02-16T01:15:35.850Z,0.00
2019-02-16T01:15:36.449Z,0.00
2019-02-16T01:15:37.049Z,0.00
2019-02-16T01:15:37.651Z,0.00
2019-02-16T01:15:38.255Z,0.00
2019-02-16T01:15:38.855Z,0.00
2019-02-16T01:15:39.447Z,0.00
2019-02-16T01:15:40.046Z,0.00
2019-02-16T01:15:40.647Z,0.00
2019-02-16T01:15:41.250Z,0.00
2019-02-16T01:15:41.846Z,0.00
2019-02-16T01:15:42.446Z,0.00
2019-02-16T01:15:43.046Z,0.00
2019-02-16T01:18:25.922Z,0.00
2019-02-16T01:18:26.497Z,0.00
2019-02-16T01:18:27.100Z,0.00
2019-02-16T01:18:27.692Z,0.00
2019-02-16T01:18:28.289Z,0.00
2019-02-16T01:18:28.890Z,0.00
2019-02-16T01:18:29.490Z,0.00
2019-02-16T01:18:30.088Z,0.00
2019-02-16T01:18:30.689Z,0.00
2019-02-16T01:18:31.322Z,0.00
2019-02-16T01:18:31.889Z,0.00
2019-02-16T01:18:32.487Z,0.00
2019-02-16T01:19:29.587Z,0.00
2019-02-16T01:19:30.186Z,0.00
2019-02-16T01:19:30.761Z,0.00
2019-02-16T01:25:40.876Z,0.00
2019-02-16T01:25:41.376Z,0.00
2019-02-16T01:25:41.974Z,0.00
2019-02-16T01:25:42.574Z,0.00
2019-02-16T01:25:43.175Z,0.00
2019-02-16T01:25:43.774Z,0.00
2019-02-16T01:25:44.373Z,0.00
2019-02-16T01:25:45.015Z,0.00
2019-02-16T01:25:45.630Z,0.00
2019-02-16T04:52:16.631Z,0.00
2019-02-16T04:52:17.133Z,0.00
2019-02-16T04:52:17.731Z,0.00
2019-02-16T04:52:18.334Z,0.00
2019-02-16T04:52:18.930Z,0.00
2019-02-16T04:52:19.531Z,0.00
2019-02-16T04:52:20.129Z,0.00
2019-02-16T04:52:20.730Z,0.00
2019-02-16T04:52:21.330Z,0.00
2019-02-16T04:52:21.928Z,0.00
2019-02-16T04:52:22.530Z,0.00
2019-02-16T04:53:39.165Z,0.00
2019-02-16T04:53:39.728Z,0.00
2019-02-16T04:53:40.325Z,0.00
2019-02-16T04:57:22.673Z,0.00
2019-02-16T04:57:23.238Z,0.00
2019-02-16T04:57:23.843Z,0.00
2019-02-16T04:57:24.440Z,0.00
2019-02-16T04:57:25.040Z,0.00
2019-02-16T04:57:25.639Z,0.00
2019-02-16T04:57:26.238Z,0.00
2019-02-16T04:57:26.842Z,0.00
2019-02-16T04:57:27.440Z,0.00
2019-02-16T04:57:28.038Z,0.00
2019-02-16T04:57:28.638Z,0.00
2019-02-16T04:57:29.238Z,0.00
2019-02-16T05:01:11.596Z,0.00
2019-02-16T05:01:12.155Z,0.00
2019-02-16T05:01:12.760Z,0.00
2019-02-16T05:01:13.355Z,0.00
2019-02-16T05:01:13.954Z,0.00
2019-02-16T05:01:14.554Z,0.00
2019-02-16T05:01:15.156Z,0.00
2019-02-16T05:01:15.766Z,0.00
2019-02-16T05:01:16.358Z,0.00
2019-02-16T05:01:16.957Z,0.00
2019-02-16T05:01:17.553Z,0.00
2019-02-16T05:01:18.152Z,0.00
2019-02-16T05:03:41.019Z,0.00
2019-02-16T05:03:41.584Z,0.00
2019-02-16T05:03:42.184Z,0.00
2019-02-16T05:03:42.790Z,0.00
2019-02-16T05:03:43.412Z,0.00
2019-02-16T05:03:43.983Z,0.00
2019-02-16T05:03:44.580Z,0.00
2019-02-16T05:03:45.183Z,0.00
2019-02-16T05:03:45.780Z,0.00
2019-02-16T05:03:46.382Z,0.00
2019-02-16T05:03:47.200Z,0.00
2019-02-16T05:03:47.577Z,0.00
2019-02-16T05:06:34.791Z,0.00
2019-02-16T05:06:35.290Z,0.00
2019-02-16T05:06:35.889Z,0.00
2019-02-16T05:06:36.488Z,0.00
2019-02-16T05:06:37.089Z,0.00
2019-02-16T05:08:49.925Z,0.00
2019-02-16T05:08:50.472Z,0.00
2019-02-16T05:08:51.071Z,0.00
2019-02-16T05:08:51.669Z,0.00
2019-02-16T05:08:52.269Z,0.00
2019-02-16T05:08:52.867Z,0.00
2019-02-16T05:08:53.467Z,0.00
2019-02-16T05:08:54.068Z,0.00
2019-02-16T05:08:54.670Z,0.00
2019-02-16T05:08:55.267Z,0.00
2019-02-16T05:08:55.866Z,0.00
2019-02-16T05:08:56.471Z,0.00
2019-02-16T05:12:58.346Z,0.00
2019-02-16T05:12:58.848Z,0.00
2019-02-16T05:12:59.447Z,0.00
2019-02-16T05:13:00.046Z,0.00
2019-02-16T05:13:00.646Z,0.00
2019-02-16T05:13:01.244Z,0.00
2019-02-16T05:13:01.848Z,0.00
2019-02-16T05:13:02.452Z,0.00
2019-02-16T05:13:03.047Z,0.00
2019-02-16T05:13:03.645Z,0.00
2019-02-16T05:13:04.265Z,0.00
2019-02-16T05:13:04.898Z,0.00
2019-02-16T05:13:05.442Z,0.00
2019-02-16T05:13:06.043Z,0.00
2019-02-16T05:13:06.644Z,0.00
2019-02-16T05:13:07.260Z,0.00
2019-02-16T08:58:50.987Z,1740.00
2019-02-16T08:58:51.559Z,1740.00
2019-02-16T08:58:52.158Z,1740.00
2019-02-16T08:58:52.759Z,1740.00
2019-02-16T08:58:53.358Z,1740.00
2019-02-16T08:58:53.960Z,1740.00
2019-02-16T08:58:54.558Z,1740.00
2019-02-16T08:58:55.156Z,1740.00
2019-02-16T08:58:55.756Z,1740.00
2019-02-16T08:58:56.355Z,1740.00
2019-02-16T08:58:56.957Z,1740.00
2019-02-16T08:58:57.562Z,1740.00
2019-02-16T08:58:58.159Z,1740.00
2019-02-16T08:58:58.757Z,1740.00
2019-02-16T08:58:59.354Z,1740.00
2019-02-16T08:58:59.955Z,1740.00
2019-02-16T08:59:00.563Z,1740.00
2019-02-16T09:00:01.542Z,1744.00
2019-02-16T09:00:02.113Z,1744.00
2019-02-16T09:00:02.729Z,1744.00
2019-02-16T09:00:03.312Z,1744.00
2019-02-16T09:00:03.912Z,1744.00
2019-02-16T09:00:04.511Z,1744.00
2019-02-16T09:00:05.111Z,1744.00
2019-02-16T09:00:05.728Z,1744.00
2019-02-16T09:00:06.308Z,1744.00
2019-02-16T09:00:06.907Z,1744.00
2019-02-16T09:00:07.507Z,1744.00
2019-02-16T09:00:08.108Z,1744.00
2019-02-16T09:01:29.198Z,1744.00
2019-02-16T09:01:29.768Z,1740.00
2019-02-16T09:01:30.372Z,1740.00
2019-02-16T09:01:30.969Z,1740.00
2019-02-16T09:01:31.569Z,1744.00
2019-02-16T09:01:32.167Z,1740.00
2019-02-16T09:01:32.767Z,1744.00
2019-02-16T09:01:33.367Z,1744.00
2019-02-16T09:01:33.966Z,1744.00
2019-02-16T09:01:34.567Z,1744.00
2019-02-16T09:01:35.170Z,1744.00
2019-02-16T09:01:35.767Z,1744.00
2019-02-16T09:02:36.782Z,1748.00
2019-02-16T09:02:37.355Z,1748.00
2019-02-16T09:02:37.953Z,1748.00
2019-02-16T09:02:38.556Z,1748.00
2019-02-16T09:02:39.155Z,1748.00
2019-02-16T09:02:39.754Z,1748.00
2019-02-16T09:02:40.353Z,1748.00
2019-02-16T09:02:40.953Z,1748.00
2019-02-16T09:02:41.565Z,1748.00
2019-02-16T09:02:42.155Z,1748.00
2019-02-16T09:02:42.752Z,1748.00
2019-02-16T09:02:43.352Z,1748.00
2019-02-16T09:03:38.307Z,1752.00
2019-02-16T09:03:38.878Z,1752.00
2019-02-16T09:03:39.476Z,1752.00
2019-02-16T09:03:40.076Z,1752.00
2019-02-16T09:03:40.675Z,1752.00
2019-02-16T09:03:41.276Z,1752.00
2019-02-16T09:03:41.875Z,1752.00
2019-02-16T09:05:01.317Z,1756.00
2019-02-16T09:05:01.890Z,1756.00
2019-02-16T09:05:02.489Z,1756.00
2019-02-16T09:05:03.087Z,1756.00
2019-02-16T09:05:03.733Z,1756.00
2019-02-16T09:05:04.298Z,1756.00
2019-02-16T09:05:04.893Z,1756.00
2019-02-16T09:05:05.486Z,1756.00
2019-02-16T09:05:06.087Z,1756.00
2019-02-16T09:05:06.689Z,1756.00
2019-02-16T09:05:07.286Z,1756.00
2019-02-16T09:05:07.884Z,1756.00
2019-02-16T09:05:08.489Z,1756.00
2019-02-16T09:05:09.084Z,1756.00
2019-02-16T09:05:09.698Z,1756.00
2019-02-16T09:05:10.286Z,1756.00
2019-02-16T09:05:10.888Z,1756.00
2019-02-16T09:06:04.847Z,1760.00
2019-02-16T09:06:05.421Z,1760.00
2019-02-16T09:06:06.024Z,1760.00
2019-02-16T09:06:06.619Z,1760.00
2019-02-16T09:06:07.221Z,1760.00
2019-02-16T09:06:07.820Z,1760.00
2019-02-16T09:06:08.420Z,1760.00
2019-02-16T09:06:09.019Z,1760.00
2019-02-16T09:07:02.974Z,1764.00
2019-02-16T09:07:03.550Z,1764.00
2019-02-16T09:07:04.154Z,1764.00
2019-02-16T09:07:04.747Z,1764.00
2019-02-16T09:07:05.354Z,1764.00
2019-02-16T09:07:05.947Z,1764.00
2019-02-16T09:07:06.544Z,1764.00
2019-02-16T09:08:20.499Z,1764.00
2019-02-16T09:08:21.070Z,1764.00
2019-02-16T09:08:21.670Z,1764.00
2019-02-16T09:08:22.270Z,1760.00
2019-02-16T09:08:22.870Z,1764.00
2019-02-16T09:08:23.475Z,1764.00
2019-02-16T09:08:24.076Z,1764.00
2019-02-16T09:09:37.637Z,1768.00
2019-02-16T09:09:38.203Z,1768.00
2019-02-16T09:09:38.801Z,1768.00
2019-02-16T09:09:39.404Z,1768.00
2019-02-16T09:09:40.001Z,1768.00
2019-02-16T09:09:40.624Z,1768.00
2019-02-16T09:09:41.199Z,1768.00
2019-02-16T09:09:41.800Z,1768.00
2019-02-16T09:10:37.746Z,1768.00
2019-02-16T09:10:38.332Z,1768.00
2019-02-16T09:10:38.920Z,1768.00
2019-02-16T09:10:39.517Z,1768.00
2019-02-16T09:10:40.117Z,1768.00
2019-02-16T09:10:40.718Z,1768.00
2019-02-16T09:11:35.237Z,1768.00
2019-02-16T09:11:35.811Z,1768.00
2019-02-16T09:11:36.414Z,1768.00
2019-02-16T09:11:37.015Z,1768.00
2019-02-16T09:11:37.606Z,1768.00
2019-02-16T09:11:38.208Z,1768.00
2019-02-16T09:11:38.807Z,1768.00
2019-02-16T09:12:51.613Z,1772.00
2019-02-16T09:12:52.185Z,1768.00
2019-02-16T09:12:52.787Z,1772.00
2019-02-16T09:12:53.388Z,1768.00
2019-02-16T09:12:53.983Z,1768.00
2019-02-16T09:12:54.585Z,1768.00
2019-02-16T09:12:55.184Z,1768.00
2019-02-16T09:12:55.791Z,1768.00
2019-02-16T09:13:50.237Z,1768.00
2019-02-16T09:13:50.811Z,1768.00
2019-02-16T09:13:51.410Z,1768.00
2019-02-16T09:13:52.011Z,1768.00
2019-02-16T09:13:52.610Z,1768.00
2019-02-16T09:13:53.210Z,1768.00
2019-02-16T09:13:53.810Z,1768.00
2019-02-16T09:13:54.407Z,1768.00
2019-02-16T09:14:49.383Z,1768.00
2019-02-16T09:14:49.946Z,1768.00
2019-02-16T09:14:50.547Z,1768.00
2019-02-16T09:14:51.148Z,1768.00
2019-02-16T09:14:51.746Z,1768.00
2019-02-16T09:14:52.346Z,1768.00
2019-02-16T09:15:46.355Z,1768.00
2019-02-16T09:15:46.934Z,1768.00
2019-02-16T09:15:47.532Z,1768.00
2019-02-16T09:15:48.130Z,1772.00
2019-02-16T09:15:48.729Z,1768.00
2019-02-16T09:15:49.334Z,1768.00
2019-02-16T09:15:49.941Z,1768.00
2019-02-16T09:15:50.528Z,1772.00
2019-02-16T09:16:44.001Z,1772.00
2019-02-16T09:16:44.575Z,1772.00
2019-02-16T09:16:45.176Z,1772.00
2019-02-16T09:16:45.777Z,1772.00
2019-02-16T09:16:46.378Z,1772.00
2019-02-16T09:16:46.974Z,1772.00
2019-02-16T09:16:47.573Z,1768.00
2019-02-16T09:16:48.174Z,1772.00
2019-02-16T09:17:43.127Z,1772.00
2019-02-16T09:17:43.703Z,1772.00
2019-02-16T09:17:44.305Z,1772.00
2019-02-16T09:17:44.900Z,1772.00
2019-02-16T09:17:45.503Z,1772.00
2019-02-16T09:17:46.099Z,1772.00
2019-02-16T09:17:46.699Z,1776.00
2019-02-16T09:18:41.311Z,1776.00
2019-02-16T09:18:41.884Z,1776.00
2019-02-16T09:18:42.482Z,1776.00
2019-02-16T09:18:43.082Z,1776.00
2019-02-16T09:18:43.682Z,1776.00
2019-02-16T09:18:44.297Z,1776.00
2019-02-16T09:18:44.924Z,1776.00
2019-02-16T09:19:58.846Z,1772.00
2019-02-16T09:19:59.411Z,1772.00
2019-02-16T09:20:00.011Z,1776.00
2019-02-16T09:20:00.609Z,1772.00
2019-02-16T09:20:01.210Z,1772.00
2019-02-16T09:20:01.812Z,1772.00
2019-02-16T09:20:02.409Z,1776.00
2019-02-16T09:21:16.389Z,1776.00
2019-02-16T09:21:16.941Z,1780.00
2019-02-16T09:21:17.540Z,1780.00
2019-02-16T09:21:18.143Z,1776.00
2019-02-16T09:21:18.739Z,1776.00
2019-02-16T09:21:19.356Z,1776.00
2019-02-16T09:21:19.938Z,1776.00
2019-02-16T09:22:33.401Z,1784.00
2019-02-16T09:22:33.973Z,1784.00
2019-02-16T09:22:34.575Z,1784.00
2019-02-16T09:22:35.174Z,1784.00
2019-02-16T09:22:35.779Z,1784.00
2019-02-16T09:22:36.375Z,1784.00
2019-02-16T09:22:36.974Z,1784.00
2019-02-16T09:22:37.583Z,1784.00
2019-02-16T09:23:32.027Z,1780.00
2019-02-16T09:23:32.603Z,1780.00
2019-02-16T09:23:33.199Z,1784.00
2019-02-16T09:23:33.800Z,1784.00
2019-02-16T09:23:34.399Z,1784.00
2019-02-16T09:23:34.999Z,1780.00
2019-02-16T09:23:35.604Z,1780.00
2019-02-16T09:23:36.202Z,1784.00
2019-02-16T09:24:31.187Z,1784.00
2019-02-16T09:24:31.744Z,1780.00
2019-02-16T09:24:32.346Z,1780.00
2019-02-16T09:24:32.948Z,1780.00
2019-02-16T09:24:33.545Z,1780.00
2019-02-16T09:24:34.144Z,1784.00
2019-02-16T09:25:29.669Z,1784.00
2019-02-16T09:25:30.232Z,1784.00
2019-02-16T09:25:30.831Z,1784.00
2019-02-16T09:25:31.432Z,1784.00
2019-02-16T09:25:32.034Z,1784.00
2019-02-16T09:25:32.630Z,1784.00
2019-02-16T09:26:26.650Z,1784.00
2019-02-16T09:26:27.222Z,1784.00
2019-02-16T09:26:27.823Z,1788.00
2019-02-16T09:26:28.435Z,1784.00
2019-02-16T09:26:29.021Z,1784.00
2019-02-16T09:26:29.620Z,1784.00
2019-02-16T09:26:30.221Z,1784.00
2019-02-16T09:26:30.821Z,1784.00
2019-02-16T09:27:25.277Z,1788.00
2019-02-16T09:27:25.857Z,1788.00
2019-02-16T09:27:26.451Z,1788.00
2019-02-16T09:27:27.050Z,1788.00
2019-02-16T09:27:27.667Z,1788.00
2019-02-16T09:27:28.254Z,1788.00
2019-02-16T09:27:28.848Z,1788.00
2019-02-16T09:27:29.451Z,1788.00
2019-02-16T09:28:22.916Z,1796.00
2019-02-16T09:28:23.517Z,1792.00
2019-02-16T09:28:24.085Z,1796.00
2019-02-16T09:28:24.686Z,1796.00
2019-02-16T09:28:25.286Z,1796.00
2019-02-16T09:28:25.884Z,1796.00
2019-02-16T09:28:26.488Z,1796.00
2019-02-16T09:28:27.087Z,1796.00
2019-02-16T09:29:26.394Z,1800.00
2019-02-16T09:29:26.964Z,1796.00
2019-02-16T09:29:27.567Z,1796.00
2019-02-16T09:29:28.165Z,1796.00
2019-02-16T09:29:28.764Z,1800.00
2019-02-16T09:29:29.361Z,1796.00
2019-02-16T09:29:29.962Z,1796.00
2019-02-16T09:29:30.562Z,1800.00
2019-02-16T09:29:31.162Z,1800.00
2019-02-16T09:29:31.761Z,1796.00
2019-02-16T09:29:32.364Z,1796.00
2019-02-16T09:29:32.962Z,1800.00
2019-02-16T09:29:33.560Z,1796.00
2019-02-16T09:29:34.160Z,1796.00
2019-02-16T09:29:34.762Z,1796.00
2019-02-16T09:29:35.360Z,1796.00
2019-02-16T09:29:35.959Z,1800.00
2019-02-16T09:30:30.926Z,1800.00
2019-02-16T09:30:31.494Z,1800.00
2019-02-16T09:30:32.093Z,1800.00
2019-02-16T09:30:32.693Z,1800.00
2019-02-16T09:30:33.293Z,1800.00
2019-02-16T09:30:33.890Z,1800.00
2019-02-16T09:30:34.491Z,1800.00
2019-02-16T09:30:35.090Z,1800.00
2019-02-16T09:31:29.058Z,1800.00
2019-02-16T09:31:29.632Z,1800.00
2019-02-16T09:31:30.232Z,1800.00
2019-02-16T09:31:30.831Z,1800.00
2019-02-16T09:31:31.430Z,1800.00
2019-02-16T09:31:32.028Z,1800.00
2019-02-16T09:31:32.629Z,1804.00
2019-02-16T09:32:28.258Z,1804.00
2019-02-16T09:32:28.828Z,1804.00
2019-02-16T09:32:29.427Z,1804.00
2019-02-16T09:32:30.030Z,1804.00
2019-02-16T09:32:30.626Z,1808.00
2019-02-16T09:32:31.228Z,1808.00
2019-02-16T09:33:25.742Z,1808.00
2019-02-16T09:33:26.315Z,1808.00
2019-02-16T09:33:26.914Z,1812.00
2019-02-16T09:33:27.519Z,1812.00
2019-02-16T09:33:28.120Z,1808.00
2019-02-16T09:33:28.713Z,1808.00
2019-02-16T09:33:29.313Z,1808.00
2019-02-16T09:34:54.277Z,1812.00
2019-02-16T09:34:54.862Z,1812.00
2019-02-16T09:34:55.451Z,1812.00
2019-02-16T09:34:56.049Z,1812.00
2019-02-16T09:34:56.648Z,1812.00
2019-02-16T09:34:57.248Z,1812.00
2019-02-16T09:35:51.297Z,1816.00
2019-02-16T09:35:51.860Z,1816.00
2019-02-16T09:35:52.461Z,1816.00
2019-02-16T09:35:53.061Z,1816.00
2019-02-16T09:35:53.661Z,1816.00
2019-02-16T09:35:54.263Z,1816.00
2019-02-16T09:35:54.861Z,1816.00
2019-02-16T09:35:55.459Z,1816.00
2019-02-16T09:36:49.931Z,1816.00
2019-02-16T09:36:50.489Z,1816.00
2019-02-16T09:36:51.087Z,1820.00
2019-02-16T09:36:51.689Z,1820.00
2019-02-16T09:36:52.287Z,1816.00
2019-02-16T09:36:52.889Z,1816.00
2019-02-16T09:36:53.489Z,1816.00
2019-02-16T09:36:54.089Z,1816.00
2019-02-16T09:37:47.556Z,1816.00
2019-02-16T09:37:48.134Z,1816.00
2019-02-16T09:37:48.731Z,1816.00
2019-02-16T09:37:49.330Z,1816.00
2019-02-16T09:37:49.929Z,1816.00
2019-02-16T09:37:50.535Z,1816.00
2019-02-16T09:37:51.131Z,1816.00
2019-02-16T09:37:51.728Z,1816.00
2019-02-16T09:38:45.314Z,1816.00
2019-02-16T09:38:45.823Z,1816.00
2019-02-16T09:38:46.422Z,1816.00
2019-02-16T09:38:47.023Z,1816.00
2019-02-16T09:38:47.621Z,1816.00
2019-02-16T09:38:48.222Z,1816.00
2019-02-16T09:38:48.821Z,1816.00
2019-02-16T09:38:49.422Z,1816.00
2019-02-16T09:39:42.890Z,1816.00
2019-02-16T09:39:43.480Z,1816.00
2019-02-16T09:39:44.063Z,1812.00
2019-02-16T09:39:44.662Z,1812.00
2019-02-16T09:39:45.261Z,1812.00
2019-02-16T09:39:45.873Z,1816.00
2019-02-16T09:39:46.463Z,1812.00
2019-02-16T09:39:47.062Z,1812.00
2019-02-16T09:40:40.526Z,1820.00
2019-02-16T09:40:42.094Z,1816.00
2019-02-16T09:40:42.597Z,1816.00
2019-02-16T09:40:43.192Z,1820.00
2019-02-16T09:40:43.790Z,1816.00
2019-02-16T09:40:44.394Z,1816.00
2019-02-16T09:40:44.991Z,1820.00
2019-02-16T09:41:39.006Z,1820.00
2019-02-16T09:41:39.577Z,1820.00
2019-02-16T09:41:40.176Z,1824.00
2019-02-16T09:41:40.777Z,1816.00
2019-02-16T09:41:41.376Z,1820.00
2019-02-16T09:41:41.979Z,1820.00
2019-02-16T09:41:42.579Z,1820.00
2019-02-16T09:41:43.175Z,1820.00
2019-02-16T09:42:36.659Z,1824.00
2019-02-16T09:42:37.217Z,1820.00
2019-02-16T09:42:37.816Z,1820.00
2019-02-16T09:42:38.415Z,1824.00
2019-02-16T09:42:39.020Z,1824.00
2019-02-16T09:42:39.613Z,1820.00
2019-02-16T09:42:40.214Z,1820.00
2019-02-16T09:42:40.814Z,1820.00
2019-02-16T09:43:34.281Z,1820.00
2019-02-16T09:43:34.857Z,1824.00
2019-02-16T09:43:35.453Z,1824.00
2019-02-16T09:43:36.055Z,1824.00
2019-02-16T09:43:36.653Z,1824.00
2019-02-16T09:43:37.254Z,1824.00
2019-02-16T09:43:37.854Z,1824.00
2019-02-16T09:43:38.453Z,1824.00
2019-02-16T09:44:31.920Z,1820.00
2019-02-16T09:44:32.512Z,1824.00
2019-02-16T09:44:33.090Z,1824.00
2019-02-16T09:44:33.689Z,1824.00
2019-02-16T09:44:34.289Z,1824.00
2019-02-16T09:44:34.889Z,1820.00
2019-02-16T09:44:35.524Z,1824.00
2019-02-16T09:44:36.087Z,1820.00
2019-02-16T09:45:34.658Z,1820.00
2019-02-16T09:45:35.158Z,1820.00
2019-02-16T09:45:35.757Z,1816.00
2019-02-16T09:45:36.357Z,1820.00
2019-02-16T09:45:36.956Z,1820.00
2019-02-16T09:45:37.556Z,1816.00
2019-02-16T09:45:38.157Z,1820.00
2019-02-16T09:45:38.756Z,1816.00
2019-02-16T09:45:39.355Z,1820.00
2019-02-16T09:45:39.957Z,1820.00
2019-02-16T09:45:40.564Z,1820.00
2019-02-16T09:45:41.154Z,1820.00
2019-02-16T09:45:41.757Z,1816.00
2019-02-16T09:45:42.355Z,1820.00
2019-02-16T09:45:42.955Z,1820.00
2019-02-16T09:45:43.554Z,1820.00
2019-02-16T14:38:40.570Z,2508.00
2019-02-16T14:38:41.076Z,2496.00
2019-02-16T14:38:41.642Z,2496.00
2019-02-16T14:38:42.261Z,2496.00
2019-02-16T14:38:42.834Z,2492.00
2019-02-16T14:38:43.434Z,2492.00
2019-02-16T14:38:44.038Z,2496.00
2019-02-16T14:38:44.637Z,2492.00
2019-02-16T14:38:45.235Z,2492.00
2019-02-16T14:38:45.834Z,2492.00
2019-02-16T15:56:27.845Z,852.00
2019-02-16T15:56:28.426Z,852.00
2019-02-16T15:56:28.863Z,856.00
2019-02-16T15:56:29.450Z,852.00
2019-02-16T15:56:30.084Z,848.00
2019-02-16T15:56:30.661Z,852.00
2019-02-16T15:56:31.254Z,852.00
2019-02-16T15:56:31.936Z,852.00
2019-02-16T15:57:28.408Z,832.00
2019-02-16T15:57:29.023Z,828.00
2019-02-16T15:57:29.639Z,828.00
2019-02-16T16:53:04.248Z,16.00
2019-02-16T16:53:04.799Z,16.00
2019-02-16T16:53:05.396Z,20.00
2019-02-16T16:53:05.997Z,20.00
2019-02-16T16:53:06.595Z,16.00
2019-02-16T16:53:07.209Z,16.00
2019-02-16T16:53:07.799Z,16.00
2019-02-16T16:53:08.398Z,16.00
2019-02-16T16:53:09.002Z,16.00
2019-02-16T16:53:09.615Z,16.00
2019-02-16T16:53:10.195Z,16.00
2019-02-16T16:53:10.798Z,16.00
2019-02-16T16:54:25.358Z,16.00
2019-02-16T16:54:26.241Z,12.00
2019-02-16T16:54:26.615Z,12.00
2019-02-16T16:54:26.999Z,12.00
2019-02-16T16:54:27.605Z,12.00
2019-02-16T16:54:28.326Z,12.00
2019-02-16T16:54:28.812Z,12.00
2019-02-16T16:54:29.430Z,12.00
2019-02-16T17:16:42.210Z,4.00
2019-02-16T17:16:42.776Z,4.00
2019-02-16T17:16:43.482Z,4.00
2019-02-16T17:16:43.994Z,4.00
2019-02-16T17:16:44.573Z,4.00
2019-02-16T17:16:45.361Z,4.00
2019-02-16T17:16:45.773Z,4.00
2019-02-16T17:16:46.372Z,4.00
2019-02-16T17:16:46.973Z,4.00
2019-02-16T17:16:47.572Z,4.00
2019-02-16T17:16:48.171Z,4.00
2019-02-16T17:16:48.772Z,4.00
2019-02-16T17:19:58.566Z,4.00
2019-02-16T17:19:59.068Z,0.00
2019-02-16T17:19:59.669Z,0.00
2019-02-16T17:20:00.360Z,0.00
2019-02-16T17:20:01.151Z,0.00
2019-02-16T17:20:01.533Z,0.00
2019-02-16T17:20:02.067Z,0.00
2019-02-16T17:20:56.632Z,0.00
2019-02-16T17:20:57.189Z,4.00
2019-02-16T17:20:57.810Z,0.00
2019-02-16T17:20:58.394Z,4.00
2019-02-16T17:20:59.021Z,4.00
2019-02-16T17:20:59.597Z,0.00
2019-02-16T17:21:00.212Z,4.00
2019-02-16T17:22:01.232Z,4.00
2019-02-16T17:22:01.866Z,4.00
2019-02-16T17:22:02.404Z,4.00
2019-02-16T17:22:03.003Z,4.00
2019-02-16T17:22:03.604Z,4.00
2019-02-16T17:22:04.210Z,4.00